createdAt,value
2023-01-22T00:01:15.713Z,-1.72
2023-01-22T00:03:46.596Z,-1.67
2023-01-22T00:06:16.133Z,-1.67
2023-01-22T00:08:44.346Z,-1.70
2023-01-22T00:11:12.989Z,-1.67
2023-01-22T00:13:40.875Z,-1.71
2023-01-22T00:16:13.599Z,-1.73
2023-01-22T00:18:41.978Z,-1.75
2023-01-22T00:21:10.080Z,-1.69
2023-01-22T00:23:38.718Z,-1.69
2023-01-22T00:26:11.412Z,-1.72
2023-01-22T00:28:41.673Z,-1.77
2023-01-22T00:31:13.133Z,-1.82
2023-01-22T00:33:41.796Z,-1.74
2023-01-22T00:36:12.599Z,-1.73
2023-01-22T00:38:40.890Z,-1.76
2023-01-22T00:41:09.891Z,-1.68
2023-01-22T00:43:38.753Z,-1.73
2023-01-22T00:46:07.567Z,-1.72
2023-01-22T00:48:45.372Z,-1.78
2023-01-22T00:51:15.005Z,-1.74
2023-01-22T00:53:43.915Z,-1.82
2023-01-22T00:56:14.364Z,-1.83
2023-01-22T00:58:42.705Z,-1.81
2023-01-22T01:01:10.825Z,-1.81
2023-01-22T01:03:40.191Z,-1.79
2023-01-22T01:06:11.508Z,-1.81
2023-01-22T01:08:42.789Z,-1.86
2023-01-22T01:11:14.278Z,-1.84
2023-01-22T01:13:43.355Z,-1.82
2023-01-22T01:16:14.872Z,-1.84
2023-01-22T01:18:44.570Z,-1.86
2023-01-22T01:21:13.156Z,-1.86
2023-01-22T01:23:41.347Z,-1.82
2023-01-22T01:26:10.830Z,-1.84
2023-01-22T01:28:39.194Z,-1.92
2023-01-22T01:31:08.652Z,-1.79
2023-01-22T01:33:36.927Z,-1.88
2023-01-22T01:36:08.049Z,-1.90
2023-01-22T01:38:35.972Z,-1.87
2023-01-22T01:41:04.692Z,-1.83
2023-01-22T01:43:32.943Z,-1.77
2023-01-22T01:46:03.909Z,-1.80
2023-01-22T01:48:36.250Z,-1.82
2023-01-22T01:51:12.519Z,-1.78
2023-01-22T01:53:42.371Z,-1.75
2023-01-22T01:56:16.670Z,-1.76
2023-01-22T01:58:47.406Z,-1.72
2023-01-22T02:01:17.505Z,-1.75
2023-01-22T02:03:47.182Z,-1.83
2023-01-22T02:06:18.648Z,-1.82
2023-01-22T02:08:48.906Z,-1.81
2023-01-22T02:11:18.103Z,-1.84
2023-01-22T02:13:51.557Z,-1.81
2023-01-22T02:16:19.879Z,-1.85
2023-01-22T02:18:47.798Z,-1.80
2023-01-22T02:21:35.556Z,-1.87
2023-01-22T02:24:04.350Z,-1.88
2023-01-22T02:26:32.623Z,-1.87
2023-01-22T02:29:00.547Z,-1.87
2023-01-22T02:31:28.547Z,-1.85
2023-01-22T02:33:56.768Z,-1.87
2023-01-22T02:36:24.797Z,-1.85
2023-01-22T02:38:54.199Z,-1.88
2023-01-22T02:41:22.456Z,-1.86
2023-01-22T02:43:50.430Z,-1.90
2023-01-22T02:46:18.524Z,-1.87
2023-01-22T02:48:46.551Z,-1.82
2023-01-22T02:51:14.601Z,-1.83
2023-01-22T02:53:42.547Z,-1.90
2023-01-22T02:56:12.965Z,-1.88
2023-01-22T02:58:41.230Z,-1.91
2023-01-22T03:01:18.965Z,-1.88
2023-01-22T03:03:47.836Z,-1.89
2023-01-22T03:06:21.715Z,-1.94
2023-01-22T03:08:49.822Z,-1.87
2023-01-22T03:11:19.217Z,-1.85
2023-01-22T03:14:04.923Z,-1.83
2023-01-22T03:16:50.756Z,-1.81
2023-01-22T03:19:36.624Z,-1.77
2023-01-22T03:22:04.688Z,-1.81
2023-01-22T03:24:32.693Z,-1.72
2023-01-22T03:27:02.268Z,-1.78
2023-01-22T03:29:30.312Z,-1.76
2023-01-22T03:31:58.258Z,-1.83
2023-01-22T03:34:27.453Z,-1.85
2023-01-22T03:36:55.415Z,-1.90
2023-01-22T03:39:23.645Z,-1.85
2023-01-22T03:41:51.612Z,-1.88
2023-01-22T03:44:21.131Z,-1.75
2023-01-22T03:46:49.192Z,-1.81
2023-01-22T03:49:17.458Z,-1.90
2023-01-22T03:51:45.729Z,-1.93
2023-01-22T03:54:14.814Z,-1.93
2023-01-22T03:56:43.285Z,-1.83
2023-01-22T03:59:12.142Z,-1.93
2023-01-22T04:01:41.462Z,-1.94
2023-01-22T04:04:09.408Z,-1.96
2023-01-22T04:06:37.375Z,-1.97
2023-01-22T04:09:05.300Z,-1.91
2023-01-22T04:11:33.316Z,-1.94
2023-01-22T04:14:01.242Z,-1.95
2023-01-22T04:16:29.225Z,-1.99
2023-01-22T04:18:58.670Z,-1.94
2023-01-22T04:21:26.698Z,-1.98
2023-01-22T04:23:54.795Z,-1.95
2023-01-22T04:26:22.748Z,-1.91
2023-01-22T04:28:50.734Z,-1.96
2023-01-22T04:31:18.867Z,-1.96
2023-01-22T04:33:46.821Z,-2.01
2023-01-22T04:36:16.157Z,-1.94
2023-01-22T04:38:44.157Z,-1.97
2023-01-22T04:41:12.136Z,-1.92
2023-01-22T04:43:40.054Z,-1.97
2023-01-22T04:46:08.001Z,-1.95
2023-01-22T04:48:35.948Z,-1.91
2023-01-22T04:51:04.121Z,-1.97
2023-01-22T04:53:33.476Z,-1.94
2023-01-22T04:56:01.490Z,-2.02
2023-01-22T04:58:29.464Z,-1.93
2023-01-22T05:00:57.527Z,-1.94
2023-01-22T05:03:25.869Z,-2.00
2023-01-22T05:05:53.833Z,-1.92
2023-01-22T05:08:21.780Z,-1.95
2023-01-22T05:10:51.163Z,-1.92
2023-01-22T05:13:19.069Z,-1.96
2023-01-22T05:15:47.087Z,-1.90
2023-01-22T05:18:15.007Z,-1.85
2023-01-22T05:20:42.961Z,-1.91
2023-01-22T05:23:10.883Z,-1.96
2023-01-22T05:25:38.869Z,-1.93
2023-01-22T05:28:08.224Z,-1.90
2023-01-22T05:30:36.181Z,-1.94
2023-01-22T05:33:04.101Z,-1.97
2023-01-22T05:35:32.040Z,-1.93
2023-01-22T05:38:00.019Z,-1.87
2023-01-22T05:40:28.021Z,-1.94
2023-01-22T05:42:55.998Z,-1.94
2023-01-22T05:45:25.291Z,-1.98
2023-01-22T05:47:54.380Z,-1.89
2023-01-22T05:50:22.398Z,-1.91
2023-01-22T05:52:55.834Z,-1.90
2023-01-22T05:55:24.091Z,-1.88
2023-01-22T05:57:52.271Z,-1.92
2023-01-22T06:00:20.982Z,-1.88
2023-01-22T06:02:50.390Z,-1.81
2023-01-22T06:05:18.361Z,-1.80
2023-01-22T06:07:46.362Z,-1.75
2023-01-22T06:10:14.281Z,-1.77
2023-01-22T06:12:42.269Z,-1.75
2023-01-22T06:15:11.590Z,-1.83
2023-01-22T06:17:39.644Z,-1.74
2023-01-22T06:20:12.480Z,-1.73
2023-01-22T06:22:40.439Z,-1.69
2023-01-22T06:25:09.499Z,-1.73
2023-01-22T06:27:37.468Z,-1.73
2023-01-22T06:30:06.203Z,-1.71
2023-01-22T06:32:34.181Z,-1.70
2023-01-22T06:35:02.151Z,-1.65
2023-01-22T06:37:31.566Z,-1.64
2023-01-22T06:39:59.490Z,-1.70
2023-01-22T06:42:27.487Z,-1.65
2023-01-22T06:44:55.430Z,-1.67
2023-01-22T06:47:23.352Z,-1.61
2023-01-22T06:49:51.365Z,-1.59
2023-01-22T06:52:19.295Z,-1.64
2023-01-22T06:54:48.589Z,-1.67
2023-01-22T06:57:16.609Z,-1.63
2023-01-22T06:59:44.563Z,-1.60
2023-01-22T07:02:17.152Z,-1.55
2023-01-22T07:04:45.302Z,-1.53
2023-01-22T07:07:13.731Z,-1.57
2023-01-22T07:09:41.925Z,-1.62
2023-01-22T07:12:11.377Z,-1.65
2023-01-22T07:14:39.290Z,-1.68
2023-01-22T07:17:07.448Z,-1.67
2023-01-22T07:19:35.364Z,-1.59
2023-01-22T07:22:03.393Z,-1.59
2023-01-22T07:24:31.398Z,-1.64
2023-01-22T07:26:59.353Z,-1.68
2023-01-22T07:29:28.608Z,-1.67
2023-01-22T07:31:56.649Z,-1.61
2023-01-22T07:34:24.658Z,-1.58
2023-01-22T07:36:52.607Z,-1.60
2023-01-22T07:39:20.511Z,-1.54
2023-01-22T07:41:48.572Z,-1.59
2023-01-22T07:44:16.660Z,-1.55
2023-01-22T07:46:46.035Z,-1.48
2023-01-22T07:49:14.108Z,-1.46
2023-01-22T07:51:42.061Z,-1.48
2023-01-22T07:54:09.979Z,-1.41
2023-01-22T07:56:43.586Z,-1.43
2023-01-22T07:59:11.485Z,-1.31
2023-01-22T08:01:39.720Z,-1.42
2023-01-22T08:04:09.099Z,-1.43
2023-01-22T08:06:37.065Z,-1.17
2023-01-22T08:09:06.674Z,-1.24
2023-01-22T08:11:34.729Z,-1.33
2023-01-22T08:14:02.735Z,-1.26
2023-01-22T08:16:30.989Z,-1.24
2023-01-22T08:18:59.050Z,-1.32
2023-01-22T08:21:28.364Z,-1.26
2023-01-22T08:23:56.263Z,-1.32
2023-01-22T08:26:24.201Z,-1.25
2023-01-22T08:28:52.184Z,-1.25
2023-01-22T08:31:27.796Z,-1.18
2023-01-22T08:33:56.525Z,-1.17
2023-01-22T08:36:25.292Z,-1.24
2023-01-22T08:38:54.762Z,-1.15
2023-01-22T08:41:23.553Z,-1.16
2023-01-22T08:43:53.238Z,-1.32
2023-01-22T08:46:21.683Z,-1.13
2023-01-22T08:48:50.841Z,-1.12
2023-01-22T08:51:19.314Z,-1.01
2023-01-22T08:53:47.270Z,-1.02
2023-01-22T08:56:16.612Z,-1.04
2023-01-22T08:58:44.674Z,-1.03
2023-01-22T09:01:17.393Z,-0.99
2023-01-22T09:03:45.702Z,-1.08
2023-01-22T09:06:14.098Z,-1.01
2023-01-22T09:08:42.031Z,-0.98
2023-01-22T09:11:10.296Z,-0.97
2023-01-22T09:13:39.801Z,-0.98
2023-01-22T09:16:11.008Z,-0.97
2023-01-22T09:18:39.164Z,-0.99
2023-01-22T09:21:08.319Z,-0.90
2023-01-22T09:23:36.438Z,-0.89
2023-01-22T09:26:04.485Z,-0.91
2023-01-22T09:28:34.115Z,-0.86
2023-01-22T09:31:05.461Z,-0.83
2023-01-22T09:33:33.447Z,-0.91
2023-01-22T09:36:09.527Z,-0.86
2023-01-22T09:38:37.777Z,-0.85
2023-01-22T09:41:14.738Z,-0.78
2023-01-22T09:43:49.194Z,-0.79
2023-01-22T09:46:24.989Z,-0.65
2023-01-22T09:48:57.685Z,-0.63
2023-01-22T09:51:25.770Z,-0.69
2023-01-22T09:53:58.152Z,-0.61
2023-01-22T09:56:35.143Z,-0.61
2023-01-22T09:59:05.605Z,-0.59
2023-01-22T10:01:38.119Z,-0.52
2023-01-22T10:04:15.376Z,-0.47
2023-01-22T10:06:45.654Z,-0.45
2023-01-22T10:09:16.501Z,-0.49
2023-01-22T10:11:50.778Z,-0.44
2023-01-22T10:14:21.266Z,-0.49
2023-01-22T10:16:50.975Z,-0.40
2023-01-22T10:19:24.364Z,-0.71
2023-01-22T10:21:57.901Z,-0.51
2023-01-22T10:24:26.642Z,-0.53
2023-01-22T10:26:56.157Z,-0.48
2023-01-22T10:29:27.364Z,-0.52
2023-01-22T10:31:59.236Z,-0.58
2023-01-22T10:34:32.564Z,-0.56
2023-01-22T10:37:02.676Z,-0.56
2023-01-22T10:39:40.607Z,-0.47
2023-01-22T10:42:08.829Z,-0.36
2023-01-22T10:44:37.161Z,-0.38
2023-01-22T10:47:20.547Z,-0.35
2023-01-22T10:49:49.011Z,-0.29
2023-01-22T10:52:24.113Z,-0.23
2023-01-22T10:54:57.118Z,-0.20
2023-01-22T10:57:31.947Z,-0.08
2023-01-22T11:00:08.429Z,-0.34
2023-01-22T11:02:42.210Z,0.00
2023-01-22T11:05:19.731Z,-0.01
2023-01-22T11:07:51.941Z,-0.07
2023-01-22T11:10:23.758Z,0.00
2023-01-22T11:12:54.815Z,-0.12
2023-01-22T11:15:30.290Z,-0.22
2023-01-22T11:18:02.558Z,-0.17
2023-01-22T11:20:36.406Z,-0.20
2023-01-22T11:23:16.840Z,-0.19
2023-01-22T11:25:50.500Z,-0.14
2023-01-22T11:28:29.273Z,-0.13
2023-01-22T11:31:10.111Z,-0.11
2023-01-22T11:33:56.609Z,0.04
2023-01-22T11:36:32.441Z,0.13
2023-01-22T11:39:09.243Z,0.10
2023-01-22T11:42:02.203Z,0.07
2023-01-22T11:44:56.947Z,0.14
2023-01-22T11:47:51.049Z,0.07
2023-01-22T11:50:27.583Z,0.12
2023-01-22T11:53:06.526Z,0.13
2023-01-22T11:55:52.173Z,0.13
2023-01-22T11:58:32.352Z,0.18
2023-01-22T12:01:14.660Z,0.14
2023-01-22T12:04:15.149Z,0.18
2023-01-22T12:07:08.705Z,0.30
2023-01-22T12:09:43.782Z,0.30
2023-01-22T12:12:24.867Z,0.30
2023-01-22T12:15:15.124Z,0.28
2023-01-22T12:17:56.028Z,0.30
2023-01-22T12:20:39.533Z,0.27
2023-01-22T12:23:14.688Z,0.19
2023-01-22T12:25:49.177Z,0.15
2023-01-22T12:28:19.900Z,0.11
2023-01-22T12:31:00.916Z,0.09
2023-01-22T12:33:31.979Z,0.02
2023-01-22T12:36:03.822Z,0.10
2023-01-22T12:38:43.296Z,0.05
2023-01-22T12:41:34.086Z,0.01
2023-01-22T12:44:10.566Z,0.15
2023-01-22T12:46:52.312Z,0.09
2023-01-22T12:49:20.977Z,0.09
2023-01-22T12:51:50.903Z,0.17
2023-01-22T12:54:23.157Z,0.11
2023-01-22T12:56:52.551Z,0.18
2023-01-22T12:59:42.266Z,0.05
2023-01-22T13:02:35.853Z,0.03
2023-01-22T13:05:22.616Z,0.04
2023-01-22T13:08:02.184Z,0.03
2023-01-22T13:10:33.173Z,0.01
2023-01-22T13:13:06.609Z,-0.01
2023-01-22T13:15:38.227Z,0.16
2023-01-22T13:18:09.485Z,0.04
2023-01-22T13:20:48.031Z,0.12
2023-01-22T13:23:17.318Z,0.07
2023-01-22T13:25:47.266Z,0.04
2023-01-22T13:28:19.100Z,-0.05
2023-01-22T13:30:57.638Z,0.15
2023-01-22T13:33:25.662Z,0.12
2023-01-22T13:35:53.633Z,0.08
2023-01-22T13:38:24.437Z,0.15
2023-01-22T13:41:00.014Z,0.15
2023-01-22T13:43:30.682Z,0.07
2023-01-22T13:46:01.550Z,0.11
2023-01-22T13:48:30.009Z,0.04
2023-01-22T13:51:03.297Z,0.16
2023-01-22T13:53:33.884Z,0.07
2023-01-22T13:56:03.327Z,0.12
2023-01-22T13:58:52.715Z,0.06
2023-01-22T14:01:32.423Z,0.09
2023-01-22T14:04:02.231Z,0.09
2023-01-22T14:06:31.191Z,0.11
2023-01-22T14:08:59.496Z,0.14
2023-01-22T14:11:40.427Z,-0.02
2023-01-22T14:14:17.438Z,0.04
2023-01-22T14:16:45.651Z,0.12
2023-01-22T14:19:14.391Z,-0.02
2023-01-22T14:21:43.422Z,0.09
2023-01-22T14:24:11.543Z,-0.07
2023-01-22T14:26:40.950Z,-0.02
2023-01-22T14:29:09.445Z,-0.04
2023-01-22T14:31:37.473Z,0.04
2023-01-22T14:34:05.490Z,0.10
2023-01-22T14:36:33.442Z,0.04
2023-01-22T14:39:01.511Z,0.02
2023-01-22T14:41:29.490Z,-0.01
2023-01-22T14:43:58.786Z,0.04
2023-01-22T14:46:26.854Z,0.01
2023-01-22T14:48:54.737Z,0.01
2023-01-22T14:51:25.556Z,0.03
2023-01-22T14:53:53.561Z,-0.02
2023-01-22T14:56:21.640Z,0.04
2023-01-22T14:58:50.479Z,0.04
2023-01-22T15:01:21.970Z,0.06
2023-01-22T15:03:50.064Z,0.13
2023-01-22T15:06:18.117Z,0.08
2023-01-22T15:08:46.053Z,0.00
2023-01-22T15:11:14.088Z,-0.05
2023-01-22T15:13:42.033Z,0.00
2023-01-22T15:16:11.824Z,0.01
2023-01-22T15:18:41.231Z,0.04
2023-01-22T15:21:09.374Z,0.01
2023-01-22T15:23:37.326Z,0.02
2023-01-22T15:26:08.188Z,-0.07
2023-01-22T15:28:36.296Z,-0.03
2023-01-22T15:31:08.054Z,0.00
2023-01-22T15:33:36.310Z,0.06
2023-01-22T15:36:07.969Z,0.00
2023-01-22T15:38:37.011Z,-0.08
2023-01-22T15:41:07.097Z,-0.14
2023-01-22T15:43:35.110Z,-0.03
2023-01-22T15:46:03.492Z,-0.01
2023-01-22T15:48:31.506Z,-0.04
2023-01-22T15:51:09.171Z,-0.03
2023-01-22T15:53:39.926Z,-0.09
2023-01-22T15:56:09.063Z,-0.12
2023-01-22T15:58:36.970Z,-0.04
2023-01-22T16:01:05.110Z,-0.12
2023-01-22T16:03:35.283Z,-0.15
2023-01-22T16:06:14.450Z,-0.10
2023-01-22T16:08:44.028Z,-0.10
2023-01-22T16:11:13.782Z,-0.09
2023-01-22T16:13:43.391Z,-0.09
2023-01-22T16:16:17.169Z,-0.23
2023-01-22T16:18:46.157Z,-0.13
2023-01-22T16:21:16.541Z,-0.20
2023-01-22T16:23:46.915Z,-0.24
2023-01-22T16:26:17.573Z,-0.15
2023-01-22T16:28:46.283Z,-0.14
2023-01-22T16:31:17.458Z,-0.19
2023-01-22T16:33:47.151Z,-0.14
2023-01-22T16:36:18.749Z,-0.13
2023-01-22T16:38:47.362Z,-0.21
2023-01-22T16:41:25.568Z,-0.17
2023-01-22T16:43:55.690Z,-0.12
2023-01-22T16:46:26.745Z,-0.15
2023-01-22T16:49:00.155Z,-0.18
2023-01-22T16:51:34.602Z,-0.28
2023-01-22T16:54:02.674Z,-0.31
2023-01-22T16:56:32.661Z,-0.32
2023-01-22T16:59:00.643Z,-0.34
2023-01-22T17:01:30.903Z,-0.34
2023-01-22T17:03:59.186Z,-0.33
2023-01-22T17:06:32.185Z,-0.28
2023-01-22T17:09:05.495Z,-0.29
2023-01-22T17:11:33.906Z,-0.32
2023-01-22T17:14:02.636Z,-0.28
2023-01-22T17:16:30.739Z,-0.37
2023-01-22T17:19:00.288Z,-0.37
2023-01-22T17:21:30.401Z,-0.29
2023-01-22T17:23:58.956Z,-0.39
2023-01-22T17:26:28.306Z,-0.36
2023-01-22T17:28:58.094Z,-0.24
2023-01-22T17:31:28.947Z,-0.34
2023-01-22T17:33:57.139Z,-0.30
2023-01-22T17:36:25.611Z,-0.36
2023-01-22T17:38:58.951Z,-0.36
2023-01-22T17:41:28.475Z,-0.32
2023-01-22T17:43:58.936Z,-0.35
2023-01-22T17:46:31.535Z,-0.33
2023-01-22T17:49:01.165Z,-0.28
2023-01-22T17:51:30.547Z,-0.31
2023-01-22T17:54:03.214Z,-0.26
2023-01-22T17:56:32.953Z,-0.17
2023-01-22T17:59:04.807Z,-0.24
2023-01-22T18:01:35.195Z,-0.29
2023-01-22T18:04:06.233Z,-0.33
2023-01-22T18:06:34.908Z,-0.25
2023-01-22T18:09:05.868Z,-0.29
2023-01-22T18:11:34.882Z,-0.32
2023-01-22T18:14:04.697Z,-0.30
2023-01-22T18:16:36.221Z,-0.33
2023-01-22T18:19:07.241Z,-0.34
2023-01-22T18:21:36.344Z,-0.35
2023-01-22T18:24:08.587Z,-0.30
2023-01-22T18:26:37.071Z,-0.32
2023-01-22T18:29:06.187Z,-0.37
2023-01-22T18:31:34.975Z,-0.37
2023-01-22T18:34:04.609Z,-0.36
2023-01-22T18:36:34.107Z,-0.42
2023-01-22T18:39:03.608Z,-0.36
2023-01-22T18:41:33.172Z,-0.44
2023-01-22T18:44:02.539Z,-0.40
2023-01-22T18:46:33.251Z,-0.40
2023-01-22T18:49:03.464Z,-0.39
2023-01-22T18:51:33.222Z,-0.41
2023-01-22T18:54:02.904Z,-0.37
2023-01-22T18:56:32.391Z,-0.34
2023-01-22T18:59:00.742Z,-0.39
2023-01-22T19:01:30.807Z,-0.41
2023-01-22T19:04:00.564Z,-0.42
2023-01-22T19:06:31.330Z,-0.43
2023-01-22T19:09:02.811Z,-0.38
2023-01-22T19:11:33.893Z,-0.36
2023-01-22T19:14:05.676Z,-0.40
2023-01-22T19:16:34.225Z,-0.38
2023-01-22T19:19:04.162Z,-0.35
2023-01-22T19:21:32.762Z,-0.31
2023-01-22T19:24:03.019Z,-0.33
2023-01-22T19:26:34.554Z,-0.35
2023-01-22T19:29:05.051Z,-0.32
2023-01-22T19:31:36.765Z,-0.32
2023-01-22T19:34:06.076Z,-0.32
2023-01-22T19:36:38.401Z,-0.33
2023-01-22T19:39:11.567Z,-0.41
2023-01-22T19:41:41.716Z,-0.33
2023-01-22T19:44:11.104Z,-0.31
2023-01-22T19:46:39.831Z,-0.33
2023-01-22T19:49:08.903Z,-0.40
2023-01-22T19:51:36.901Z,-0.36
2023-01-22T19:54:06.364Z,-0.32
2023-01-22T19:56:36.219Z,-0.36
2023-01-22T19:59:07.669Z,-0.35
2023-01-22T20:01:36.918Z,-0.38
2023-01-22T20:04:08.840Z,-0.37
2023-01-22T20:06:39.427Z,-0.38
2023-01-22T20:09:07.368Z,-0.37
2023-01-22T20:11:35.422Z,-0.30
2023-01-22T20:14:03.431Z,-0.29
2023-01-22T20:16:32.791Z,-0.27
2023-01-22T20:19:00.697Z,-0.46
2023-01-22T20:21:30.028Z,-0.40
2023-01-22T20:23:57.961Z,-0.28
2023-01-22T20:26:26.027Z,-0.24
2023-01-22T20:28:53.937Z,-0.26
2023-01-22T20:31:24.284Z,-0.31
2023-01-22T20:33:57.163Z,-0.43
2023-01-22T20:36:27.817Z,-0.39
2023-01-22T20:38:56.604Z,-0.51
2023-01-22T20:41:27.526Z,-0.48
2023-01-22T20:43:55.952Z,-0.42
2023-01-22T20:46:26.265Z,-0.53
2023-01-22T20:48:58.477Z,-0.53
2023-01-22T20:51:28.388Z,-0.50
2023-01-22T20:54:07.061Z,-0.54
2023-01-22T20:56:36.239Z,-0.58
2023-01-22T20:59:06.689Z,-0.51
2023-01-22T21:01:35.250Z,-0.55
2023-01-22T21:04:05.533Z,-0.44
2023-01-22T21:06:36.590Z,-0.44
2023-01-22T21:09:06.180Z,-0.48
2023-01-22T21:11:36.696Z,-0.53
2023-01-22T21:14:05.763Z,-0.47
2023-01-22T21:16:35.799Z,-0.53
2023-01-22T21:19:07.228Z,-0.46
2023-01-22T21:21:36.740Z,-0.46
2023-01-22T21:24:05.075Z,-0.53
2023-01-22T21:26:34.151Z,-0.39
2023-01-22T21:29:04.648Z,-0.46
2023-01-22T21:31:32.791Z,-0.44
2023-01-22T21:34:05.208Z,-0.48
2023-01-22T21:36:36.359Z,-0.46
2023-01-22T21:39:06.078Z,-0.53
2023-01-22T21:41:34.755Z,-0.39
2023-01-22T21:44:20.542Z,-0.48
2023-01-22T21:46:48.961Z,-0.45
2023-01-22T21:49:22.951Z,-0.48
2023-01-22T21:51:53.987Z,-0.48
2023-01-22T21:54:23.939Z,-0.51
2023-01-22T21:56:52.330Z,-0.51
2023-01-22T21:59:20.727Z,-0.52
2023-01-22T22:01:50.601Z,-0.49
2023-01-22T22:04:18.970Z,-0.50
2023-01-22T22:06:47.393Z,-0.54
2023-01-22T22:09:20.856Z,-0.48
2023-01-22T22:11:49.429Z,-0.52
2023-01-22T22:14:20.294Z,-0.45
2023-01-22T22:16:48.855Z,-0.47
2023-01-22T22:19:18.867Z,-0.49
2023-01-22T22:21:47.060Z,-0.39
2023-01-22T22:24:17.515Z,-0.40
2023-01-22T22:26:45.947Z,-0.48
2023-01-22T22:29:13.976Z,-0.37
2023-01-22T22:31:43.140Z,-0.45
2023-01-22T22:34:11.381Z,-0.43
2023-01-22T22:36:39.433Z,-0.46
2023-01-22T22:39:07.585Z,-0.40
2023-01-22T22:41:38.669Z,-0.41
2023-01-22T22:44:08.012Z,-0.36
2023-01-22T22:46:38.126Z,-0.37
2023-01-22T22:49:07.773Z,-0.44
2023-01-22T22:51:37.584Z,-0.46
2023-01-22T22:54:07.738Z,-0.37
2023-01-22T22:56:37.147Z,-0.45
2023-01-22T22:59:05.680Z,-0.46
2023-01-22T23:01:35.664Z,-0.37
2023-01-22T23:04:04.826Z,-0.36
2023-01-22T23:06:34.781Z,-0.37
2023-01-22T23:09:06.723Z,-0.44
2023-01-22T23:11:37.665Z,-0.44
2023-01-22T23:14:05.975Z,-0.45
2023-01-22T23:16:35.577Z,-0.45
2023-01-22T23:19:06.195Z,-0.48
2023-01-22T23:21:36.521Z,-0.45
2023-01-22T23:24:04.716Z,-0.44
2023-01-22T23:26:33.309Z,-0.40
2023-01-22T23:29:05.942Z,-0.44
2023-01-22T23:31:38.412Z,-0.43
2023-01-22T23:34:09.296Z,-0.45
2023-01-22T23:36:37.558Z,-0.40
2023-01-22T23:39:06.196Z,-0.45
2023-01-22T23:41:34.498Z,-0.38
2023-01-22T23:44:04.940Z,-0.40
2023-01-22T23:46:35.082Z,-0.39
2023-01-22T23:49:04.207Z,-0.40
2023-01-22T23:51:33.025Z,-0.44
2023-01-22T23:54:00.971Z,-0.48
2023-01-22T23:56:31.884Z,-0.53
2023-01-22T23:59:00.925Z,-0.49
